Dallas, Texas
Traffic Map
Current Weather Conditions
Dallas, Texas
Scattered Clouds
Scattered Clouds
86°
Feels Like: 91°
Wind Chill: 86° Ceiling: Unl
Heat Index: 91° Visibility: 10mi
Dew Point: 70° Wind: 6mph
Humidity: 59% Direction: 180° (S)
Pressure: 30.03in Gusts: 0mph
Raw Report DataKDAL 271553Z 18005KT 10SM FEW030TCU SCT080 SCT250 30/21 A3003 RMK AO2 SLP160 TCU NE T03000211 $
Traffic Incident Summary
Active as of:
Severity:
Category:
InformationThere was an issue retrieving the traffic information for this location. Please try a different location or try again shortly.
Advertisements
Track Severe Weather on mobile